Time;durP1;ratioP1;P1;durP2;ratioP2;P2;SDS_P1;SDS_P2;PMS_P1;PMS_P2;Temp;Humidity;BMP_temperature;BMP_pressure;BME280_temperature;BME280_humidity;BME280_pressure;Samples;Min_cycle;Max_cycle;Signal;HPM_P1;HPM_P2
2022/06/17 00:00:29;;;;;;;5.27;2.30;;;;;;;13.37;71.55;101715.78;6048689;28;20034;-66
2022/06/17 00:03:27;;;;;;;5.93;2.00;;;;;;;13.38;69.60;101712.09;6050585;28;20543;-66
2022/06/17 00:06:24;;;;;;;3.97;2.13;;;;;;;13.86;70.39;101718.25;6050413;28;20092;-66
2022/06/17 00:09:21;;;;;;;4.80;2.38;;;;;;;14.12;69.41;101724.69;6058643;28;20039;-66
2022/06/17 00:12:16;;;;;;;5.25;2.00;;;;;;;13.80;68.15;101729.50;6047656;28;20049;-66
2022/06/17 00:15:12;;;;;;;5.67;2.20;;;;;;;13.55;68.83;101730.06;6048782;28;20029;-66
2022/06/17 00:18:08;;;;;;;6.72;2.13;;;;;;;13.20;68.93;101732.44;6053717;28;20187;-66
2022/06/17 00:21:03;;;;;;;5.88;2.42;;;;;;;12.65;70.97;101728.47;6051138;28;20125;-65
2022/06/17 00:23:59;;;;;;;6.25;2.35;;;;;;;12.22;72.65;101731.34;6049065;28;20117;-66
2022/06/17 00:26:55;;;;;;;5.57;2.33;;;;;;;12.15;73.39;101733.66;6048964;28;20038;-66
2022/06/17 00:29:50;;;;;;;4.35;2.30;;;;;;;12.06;73.81;101730.97;6050111;28;20043;-66
2022/06/17 00:32:46;;;;;;;5.37;2.40;;;;;;;12.90;72.27;101717.34;6050735;28;20049;-65
2022/06/17 00:35:47;;;;;;;4.20;2.30;;;;;;;12.73;72.82;101716.16;6052476;28;20298;-65
2022/06/17 00:38:43;;;;;;;4.13;2.00;;;;;;;12.79;72.59;101701.47;6068029;28;20503;-65
2022/06/17 00:41:42;;;;;;;10.52;2.72;;;;;;;12.99;71.82;101701.38;6060823;28;20492;-65
2022/06/17 00:44:55;;;;;;;6.95;3.35;;;;;;;13.63;70.23;101701.75;6053173;28;20497;-65
2022/06/17 00:47:55;;;;;;;5.00;2.08;;;;;;;13.06;70.45;101709.66;6055824;28;20449;-65
2022/06/17 00:50:56;;;;;;;4.38;2.63;;;;;;;12.67;71.25;101714.03;6063260;28;20065;-65
2022/06/17 00:53:56;;;;;;;5.78;2.35;;;;;;;12.07;73.38;101722.84;6058135;28;20108;-66
2022/06/17 00:56:52;;;;;;;4.90;2.60;;;;;;;13.02;73.25;101709.09;6072272;28;20033;-66
2022/06/17 01:00:21;;;;;;;5.22;2.10;;;;;;;12.19;73.44;101729.78;6052881;28;20033;-66
2022/06/17 01:03:28;;;;;;;7.40;2.45;;;;;;;11.90;74.04;101726.94;6052199;28;20639;-66
2022/06/17 01:06:27;;;;;;;4.13;1.98;;;;;;;12.06;74.41;101730.97;6051769;28;20375;-65
2022/06/17 01:12:48;;;;;;;3.88;2.17;;;;;;;11.68;75.40;101737.69;6052130;28;20050;-65
2022/06/17 01:15:43;;;;;;;5.35;2.28;;;;;;;11.54;76.30;101737.13;6083689;28;20038;-65
2022/06/17 01:18:42;;;;;;;6.30;2.60;;;;;;;11.21;77.26;101749.53;6068153;28;20465;-65
2022/06/17 01:21:49;;;;;;;4.88;2.53;;;;;;;11.57;77.97;101735.06;6069451;28;20404;-66
2022/06/17 01:24:45;;;;;;;4.72;2.35;;;;;;;11.90;75.65;101734.91;6068984;28;20052;-65
2022/06/17 01:27:54;;;;;;;5.40;2.45;;;;;;;11.26;77.09;101730.56;6057436;28;20037;-65
2022/06/17 01:30:58;;;;;;;6.25;3.08;;;;;;;10.87;78.87;101733.81;6050752;28;20026;-65
2022/06/17 01:33:53;;;;;;;5.13;3.03;;;;;;;10.63;80.34;101742.75;6053254;28;20120;-66
2022/06/17 01:36:49;;;;;;;4.63;2.92;;;;;;;10.49;81.13;101737.69;6052547;28;20048;-65
2022/06/17 01:39:45;;;;;;;5.85;2.92;;;;;;;10.38;81.84;101758.88;6054177;28;20116;-65
2022/06/17 01:42:40;;;;;;;5.50;3.17;;;;;;;10.25;82.76;101752.84;6051497;28;20064;-65
2022/06/17 01:45:41;;;;;;;5.57;2.90;;;;;;;10.41;83.04;101748.03;6055174;28;20083;-65
2022/06/17 01:48:39;;;;;;;5.05;3.03;;;;;;;10.39;83.19;101755.28;6084353;28;20049;-65
2022/06/17 01:51:37;;;;;;;6.22;3.17;;;;;;;10.63;83.98;101748.06;6049937;28;20033;-64
2022/06/17 01:54:36;;;;;;;4.60;2.90;;;;;;;11.21;81.20;101746.91;6050678;28;20030;-65
2022/06/17 01:57:36;;;;;;;5.53;3.08;;;;;;;11.18;80.60;101759.56;6072988;28;20029;-64
2022/06/17 02:00:32;;;;;;;6.63;3.20;;;;;;;11.85;79.94;101755.72;6067608;28;20037;-65
2022/06/17 02:03:44;;;;;;;5.78;3.00;;;;;;;11.96;78.04;101761.97;6089241;28;20474;-65
2022/06/17 02:06:48;;;;;;;8.63;3.20;;;;;;;11.58;77.27;101763.31;6052275;28;20042;-65
2022/06/17 02:09:44;;;;;;;8.25;3.17;;;;;;;11.01;79.10;101783.97;6055088;28;20044;-65
2022/06/17 02:12:40;;;;;;;8.85;3.30;;;;;;;10.71;80.68;101782.78;6055383;28;20038;-65
2022/06/17 02:15:36;;;;;;;6.95;3.53;;;;;;;10.87;80.98;101805.47;6051204;28;20030;-65
2022/06/17 02:18:32;;;;;;;7.47;3.20;;;;;;;10.50;82.36;101789.75;6055967;28;20394;-64
2022/06/17 02:21:39;;;;;;;6.40;3.55;;;;;;;11.11;82.12;101792.91;6060538;28;20117;-65
2022/06/17 02:24:35;;;;;;;7.80;3.42;;;;;;;11.31;79.71;101778.84;6068663;28;20030;-64
2022/06/17 02:27:32;;;;;;;7.65;3.80;;;;;;;11.78;81.07;101783.78;6057615;28;20037;-65
2022/06/17 02:30:28;;;;;;;5.07;3.13;;;;;;;12.32;78.17;101780.94;6050074;28;20030;-65
2022/06/17 02:33:24;;;;;;;5.63;3.10;;;;;;;11.62;78.16;101783.34;6049663;28;20057;-65
2022/06/17 02:36:25;;;;;;;6.30;3.00;;;;;;;11.57;78.01;101779.38;6050897;28;20379;-65
2022/06/17 02:39:20;;;;;;;8.38;3.50;;;;;;;11.14;79.63;101782.03;6054707;28;20029;-65
2022/06/17 02:42:27;;;;;;;8.77;3.75;;;;;;;11.64;78.99;101786.72;6055239;28;20045;-65
2022/06/17 02:45:25;;;;;;;7.00;3.40;;;;;;;11.12;79.01;101783.94;6053360;28;20473;-67
2022/06/17 02:48:23;;;;;;;6.32;3.38;;;;;;;10.92;81.50;101782.91;6059686;28;20493;-65
2022/06/17 02:51:19;;;;;;;6.78;3.75;;;;;;;10.95;81.51;101769.38;6060929;28;20036;-65
2022/06/17 02:54:18;;;;;;;9.00;3.17;;;;;;;11.51;79.81;101764.78;6073378;28;20088;-65
2022/06/17 02:57:23;;;;;;;7.18;3.90;;;;;;;11.30;79.49;101772.72;6054953;28;20520;-67
2022/06/17 03:00:20;;;;;;;6.43;3.38;;;;;;;11.81;79.97;101749.00;6050239;28;20497;-67
2022/06/17 03:03:17;;;;;;;8.50;3.28;;;;;;;11.83;77.60;101765.66;6046017;28;20180;-67
2022/06/17 03:06:26;;;;;;;6.28;3.60;;;;;;;12.05;78.69;101766.50;6047396;28;20108;-67
2022/06/17 03:09:25;;;;;;;7.38;3.30;;;;;;;12.32;78.10;101753.50;6055248;28;20559;-66
2022/06/17 03:12:23;;;;;;;8.38;3.40;;;;;;;12.53;76.21;101762.28;6046565;28;20567;-67
2022/06/17 03:15:19;;;;;;;5.03;3.05;;;;;;;12.61;75.49;101749.16;6046650;28;20046;-67
2022/06/17 03:18:14;;;;;;;5.47;2.97;;;;;;;12.12;75.48;101741.91;6048194;28;20072;-67
2022/06/17 03:21:09;;;;;;;8.57;3.42;;;;;;;11.59;77.21;101738.44;6060544;28;20045;-67
2022/06/17 03:24:24;;;;;;;5.53;3.60;;;;;;;11.32;77.84;101749.53;6055450;28;20049;-67
2022/06/17 03:27:24;;;;;;;6.43;3.42;;;;;;;11.17;79.00;101757.91;6052816;28;20041;-67
2022/06/17 03:30:24;;;;;;;5.85;3.22;;;;;;;10.79;80.21;101762.78;6053890;28;20045;-67
2022/06/17 03:33:26;;;;;;;5.50;3.13;;;;;;;10.53;81.44;101763.00;6054960;28;20045;-65
2022/06/17 03:36:28;;;;;;;9.55;3.50;;;;;;;10.56;82.06;101768.06;6047995;28;20754;-67
2022/06/17 03:39:33;;;;;;;8.15;4.00;;;;;;;10.68;81.43;101775.06;6045265;28;20065;-65
2022/06/17 03:42:36;;;;;;;7.75;3.72;;;;;;;10.52;82.17;101785.19;6048909;28;20038;-65
2022/06/17 03:46:05;;;;;;;8.63;3.75;;;;;;;10.43;82.76;101788.56;6046339;28;20034;-65
2022/06/17 03:49:10;;;;;;;9.73;4.15;;;;;;;10.40;84.42;101780.00;6045046;28;20124;-66
2022/06/17 03:52:14;;;;;;;6.78;3.70;;;;;;;10.38;84.43;101785.41;6056290;28;20469;-65
2022/06/17 03:55:14;;;;;;;7.22;3.80;;;;;;;10.39;84.72;101778.28;6046756;28;20044;-66
2022/06/17 03:58:15;;;;;;;7.03;3.53;;;;;;;10.72;83.58;101767.72;6047226;28;20053;-65
2022/06/17 04:01:43;;;;;;;7.15;3.35;;;;;;;11.08;82.26;101778.06;6044504;28;20109;-65
2022/06/17 04:04:44;;;;;;;8.43;3.83;;;;;;;11.69;81.35;101775.72;6050066;28;20040;-65
2022/06/17 04:07:39;;;;;;;9.10;3.83;;;;;;;11.90;79.91;101784.59;6050618;28;20037;-65
2022/06/17 04:10:34;;;;;;;9.63;3.80;;;;;;;11.93;77.88;101789.63;6045637;28;20034;-65
2022/06/17 04:13:31;;;;;;;7.20;3.37;;;;;;;12.24;78.63;101777.25;6054112;28;20426;-65
2022/06/17 04:16:38;;;;;;;7.63;3.80;;;;;;;12.14;77.44;101782.53;6053908;28;20037;-65
2022/06/17 04:19:33;;;;;;;7.53;3.80;;;;;;;11.98;78.45;101784.78;6051741;28;20117;-65
2022/06/17 04:22:31;;;;;;;8.93;3.60;;;;;;;12.37;78.04;101784.06;6050966;28;20455;-65
2022/06/17 04:25:32;;;;;;;5.75;3.60;;;;;;;12.98;75.75;101776.94;6049210;28;20528;-65
2022/06/17 04:28:35;;;;;;;6.10;3.15;;;;;;;13.57;72.74;101776.91;6050611;28;20543;-65
2022/06/17 04:31:32;;;;;;;9.32;4.13;;;;;;;14.28;70.64;101772.94;6049905;28;20553;-66
2022/06/17 04:34:27;;;;;;;8.40;3.33;;;;;;;15.05;67.26;101766.50;6051143;28;20095;-65
2022/06/17 04:37:23;;;;;;;4.87;2.87;;;;;;;15.46;65.15;101772.16;6057807;28;20033;-66
2022/06/17 04:40:24;;;;;;;5.25;2.65;;;;;;;15.92;64.82;101771.09;6056379;28;21189;-65
2022/06/17 04:43:28;;;;;;;6.63;2.85;;;;;;;16.18;63.02;101770.28;6050555;28;20034;-66
2022/06/17 04:46:32;;;;;;;7.53;3.33;;;;;;;16.35;61.66;101774.75;6058148;28;20523;-65
2022/06/17 04:49:30;;;;;;;7.28;3.40;;;;;;;16.33;61.49;101756.19;6074044;28;20591;-65
2022/06/17 04:52:36;;;;;;;6.65;2.92;;;;;;;16.01;63.10;101754.09;6050398;28;20038;-65
2022/06/17 04:55:39;;;;;;;5.07;2.83;;;;;;;16.44;60.44;101757.75;6058401;28;20512;-66
2022/06/17 04:58:34;;;;;;;4.90;2.80;;;;;;;16.51;61.22;101753.44;6052811;28;20064;-65
2022/06/17 05:01:30;;;;;;;4.80;2.53;;;;;;;17.02;60.58;101756.03;6059578;28;20543;-65
2022/06/17 05:04:26;;;;;;;3.85;2.33;;;;;;;17.58;57.98;101739.25;6050004;28;20044;-66
2022/06/17 05:07:22;;;;;;;4.68;2.53;;;;;;;17.76;57.82;101748.00;6062978;28;20044;-65
2022/06/17 05:10:38;;;;;;;6.90;2.77;;;;;;;18.02;55.36;101749.69;6050616;28;20042;-65
2022/06/17 05:13:38;;;;;;;5.38;2.78;;;;;;;17.55;57.41;101749.50;6051679;28;20033;-66
2022/06/17 05:16:34;;;;;;;6.22;2.88;;;;;;;18.53;55.00;101751.97;6048599;28;20061;-66
2022/06/17 05:19:29;;;;;;;3.53;2.20;;;;;;;18.81;53.75;101755.06;6060282;28;20605;-66
2022/06/17 05:22:36;;;;;;;5.03;2.33;;;;;;;19.35;53.51;101764.06;6046967;28;20073;-65
2022/06/17 05:25:34;;;;;;;5.38;2.88;;;;;;;19.62;51.59;101766.25;6088872;28;20038;-66
2022/06/17 05:28:29;;;;;;;6.13;3.47;;;;;;;19.43;52.30;101777.50;6050836;28;20038;-66
2022/06/17 05:31:26;;;;;;;9.57;3.03;;;;;;;19.80;51.41;101769.47;6048847;28;20036;-66
2022/06/17 05:34:21;;;;;;;5.68;2.50;;;;;;;19.65;51.03;101759.69;6047851;28;20037;-66
2022/06/17 05:37:16;;;;;;;4.50;2.40;;;;;;;20.19;50.95;101762.06;6049007;28;20034;-66
2022/06/17 05:40:12;;;;;;;4.37;2.73;;;;;;;20.88;49.89;101768.06;6048375;28;20100;-66
2022/06/17 05:43:09;;;;;;;5.18;3.05;;;;;;;20.43;51.51;101774.50;6052663;28;20100;-66
2022/06/17 05:46:04;;;;;;;6.00;2.63;;;;;;;20.88;49.31;101778.84;6047762;28;20265;-65
2022/06/17 05:49:00;;;;;;;5.93;2.50;;;;;;;21.23;47.88;101780.78;6048155;28;20092;-66
2022/06/17 05:51:56;;;;;;;4.70;2.80;;;;;;;20.91;50.00;101786.56;6049583;28;20113;-66
2022/06/17 05:54:59;;;;;;;5.28;2.65;;;;;;;20.75;51.10;101787.63;6050008;28;20036;-65
2022/06/17 05:57:54;;;;;;;5.95;3.10;;;;;;;20.67;52.23;101789.56;6051797;28;20025;-66
2022/06/17 06:00:49;;;;;;;6.53;3.00;;;;;;;20.89;49.99;101788.63;6062462;28;20075;-66
2022/06/17 06:03:45;;;;;;;4.97;2.63;;;;;;;21.40;49.46;101773.31;6061817;28;20271;-65
2022/06/17 06:06:41;;;;;;;4.90;2.42;;;;;;;21.76;49.18;101793.03;6051618;28;20113;-66
2022/06/17 06:09:38;;;;;;;4.87;2.90;;;;;;;21.49;49.15;101791.06;6051187;28;20465;-66
2022/06/17 06:15:49;;;;;;;5.07;2.75;;;;;;;22.62;46.92;101777.50;6053179;28;20037;-66
2022/06/17 06:18:47;;;;;;;8.55;4.15;;;;;;;22.45;46.66;101785.94;6053094;28;20037;-66
2022/06/17 06:21:42;;;;;;;6.65;2.83;;;;;;;22.31;47.51;101792.25;6050672;28;20033;-66
2022/06/17 06:24:37;;;;;;;4.93;2.87;;;;;;;22.33;46.58;101790.22;6052398;28;20095;-66
2022/06/17 06:27:34;;;;;;;4.22;2.55;;;;;;;22.07;47.40;101792.69;6054442;28;20033;-66
2022/06/17 06:30:30;;;;;;;5.18;2.70;;;;;;;21.99;46.79;101794.72;6052007;28;20438;-66
2022/06/17 06:33:25;;;;;;;5.07;2.97;;;;;;;21.99;47.96;101798.25;6062646;28;20037;-66
2022/06/17 06:36:21;;;;;;;4.37;3.30;;;;;;;22.77;44.13;101798.03;6049455;28;20409;-66
2022/06/17 06:39:16;;;;;;;6.22;3.00;;;;;;;21.63;47.59;101809.09;6050879;28;20548;-65
2022/06/17 06:42:11;;;;;;;4.40;2.80;;;;;;;21.49;47.78;101809.97;6057913;28;20093;-66
2022/06/17 06:45:12;;;;;;;6.55;2.80;;;;;;;21.71;46.71;101800.88;6056532;28;20041;-65
2022/06/17 06:48:08;;;;;;;6.13;2.83;;;;;;;22.06;44.58;101804.56;6066516;28;20049;-65
2022/06/17 06:51:04;;;;;;;5.32;2.95;;;;;;;21.77;45.20;101813.56;6061183;28;20030;-66
2022/06/17 06:53:59;;;;;;;5.73;3.20;;;;;;;21.77;45.08;101805.47;6051645;28;20119;-66
2022/06/17 06:56:59;;;;;;;6.37;2.30;;;;;;;21.96;45.13;101809.44;6050305;28;20083;-66
2022/06/17 06:59:59;;;;;;;5.35;2.42;;;;;;;22.22;44.53;101806.97;6054760;28;20148;-67
2022/06/17 07:02:54;;;;;;;6.93;2.97;;;;;;;22.25;43.07;101801.19;6046406;28;20080;-65
2022/06/17 07:05:53;;;;;;;4.18;2.58;;;;;;;22.21;44.15;101797.19;6054019;28;20465;-65
2022/06/17 07:08:48;;;;;;;4.80;2.63;;;;;;;22.17;43.52;101805.88;6049810;28;20465;-65
2022/06/17 07:11:43;;;;;;;7.63;2.67;;;;;;;22.62;42.81;101810.81;6048494;28;20022;-66
2022/06/17 07:14:38;;;;;;;5.00;2.63;;;;;;;22.00;43.50;101809.88;6048906;28;20030;-65
2022/06/17 07:17:34;;;;;;;5.70;2.60;;;;;;;21.71;43.32;101822.47;6053413;28;20029;-65
2022/06/17 07:20:36;;;;;;;4.47;2.80;;;;;;;22.33;42.58;101811.84;6058390;28;20037;-65
2022/06/17 07:23:35;;;;;;;3.83;2.25;;;;;;;22.68;42.29;101801.09;6051953;28;20112;-67
2022/06/17 07:26:30;;;;;;;4.85;2.45;;;;;;;22.53;40.63;101807.41;6048580;28;20022;-66
2022/06/17 07:29:25;;;;;;;7.43;2.50;;;;;;;23.05;40.22;101811.50;6049134;28;20390;-65
2022/06/17 07:32:21;;;;;;;5.93;2.60;;;;;;;23.14;40.22;101810.28;6048294;28;20026;-66
2022/06/17 07:35:16;;;;;;;4.50;2.30;;;;;;;23.43;39.60;101799.19;6048819;28;20748;-67
2022/06/17 07:41:28;;;;;;;5.47;2.33;;;;;;;23.46;39.49;101797.94;6059689;28;20033;-65
2022/06/17 07:44:23;;;;;;;9.00;2.63;;;;;;;23.54;39.29;101809.44;6058213;28;20030;-66
2022/06/17 07:47:21;;;;;;;5.60;2.47;;;;;;;23.20;39.28;101798.66;6055645;28;20806;-66
2022/06/17 07:50:20;;;;;;;6.20;2.58;;;;;;;22.09;40.53;101796.06;6052288;28;20046;-65
2022/06/17 07:53:16;;;;;;;6.30;2.60;;;;;;;22.29;41.05;101794.34;6053519;28;20030;-65
2022/06/17 07:56:15;;;;;;;8.15;2.55;;;;;;;22.23;42.72;101784.31;6056136;28;20042;-65
2022/06/17 07:59:11;;;;;;;7.32;2.28;;;;;;;22.25;41.86;101786.84;6053551;28;20045;-65
2022/06/17 08:02:07;;;;;;;8.88;2.60;;;;;;;22.69;41.58;101786.56;6052500;28;20038;-66
2022/06/17 08:05:03;;;;;;;5.93;2.38;;;;;;;22.89;41.08;101801.84;6053608;28;20038;-65
2022/06/17 08:07:59;;;;;;;5.40;2.08;;;;;;;23.50;39.37;101791.09;6053146;28;20034;-66
2022/06/17 08:10:56;;;;;;;4.93;2.20;;;;;;;23.67;38.19;101779.66;6057337;28;20123;-67
2022/06/17 08:13:52;;;;;;;4.65;2.17;;;;;;;22.77;38.98;101775.56;6060129;28;20114;-66
2022/06/17 08:16:47;;;;;;;4.63;2.10;;;;;;;22.79;39.21;101774.31;6055289;28;20033;-66
2022/06/17 08:19:45;;;;;;;5.27;2.43;;;;;;;22.77;39.43;101779.13;6062360;28;20280;-66
2022/06/17 08:22:42;;;;;;;3.42;2.10;;;;;;;22.92;39.21;101773.56;6056550;28;20069;-67
2022/06/17 08:25:37;;;;;;;4.75;2.30;;;;;;;23.43;38.60;101766.69;6056191;28;20041;-66
2022/06/17 08:28:33;;;;;;;6.32;2.40;;;;;;;23.23;38.49;101754.97;6054397;28;20029;-66
2022/06/17 08:31:28;;;;;;;6.70;2.38;;;;;;;22.79;39.33;101758.09;6053972;28;20057;-66
2022/06/17 08:34:23;;;;;;;4.30;1.80;;;;;;;23.01;40.00;101772.34;6053598;28;20028;-66
2022/06/17 08:37:19;;;;;;;7.27;1.77;;;;;;;23.23;39.72;101756.81;6062715;28;20041;-65
2022/06/17 08:40:25;;;;;;;5.87;2.37;;;;;;;23.54;38.70;101757.97;6058397;28;20117;-66
2022/06/17 08:43:26;;;;;;;;;;;;;;;24.06;37.29;101769.91;6077158;28;20748;-66
2022/06/17 08:46:56;;;;;;;7.50;2.30;;;;;;;24.58;37.79;101775.31;6056972;28;20003;-65
2022/06/17 08:50:10;;;;;;;6.53;2.10;;;;;;;24.81;37.77;101777.59;6070653;28;20034;-65
2022/06/17 08:53:17;;;;;;;4.72;2.33;;;;;;;24.80;36.20;101781.34;6059433;28;20405;-66
2022/06/17 08:56:39;;;;;;;4.38;2.40;;;;;;;24.48;37.60;101772.22;6070711;28;20036;-66
2022/06/17 09:00:05;;;;;;;3.13;2.10;;;;;;;24.74;35.70;101761.28;6052786;28;20035;-66
2022/06/17 09:03:16;;;;;;;3.63;2.13;;;;;;;25.44;34.98;101756.81;6053029;28;20081;-66
2022/06/17 09:06:53;;;;;;;3.95;2.20;;;;;;;24.82;35.97;101761.06;6052611;28;20050;-66
2022/06/17 09:09:54;;;;;;;5.45;1.88;;;;;;;24.91;36.33;101750.81;6013015;28;20041;-66
2022/06/17 09:12:58;;;;;;;8.43;2.20;;;;;;;25.17;36.51;101758.00;6023230;28;20529;-66
2022/06/17 09:16:30;;;;;;;3.47;1.80;;;;;;;24.98;36.68;101750.78;6053097;28;20058;-66
2022/06/17 09:19:29;;;;;;;5.18;1.90;;;;;;;25.10;36.45;101743.63;6054149;28;20050;-67
2022/06/17 09:22:28;;;;;;;4.80;2.47;;;;;;;25.20;35.25;101738.56;6051773;28;20040;-66
2022/06/17 09:25:28;;;;;;;3.60;2.05;;;;;;;24.75;35.77;101738.53;6051851;28;20061;-66
2022/06/17 09:28:29;;;;;;;4.53;1.77;;;;;;;24.80;37.20;101727.91;6050827;28;20030;-66
2022/06/17 09:31:41;;;;;;;5.05;2.05;;;;;;;25.28;35.99;101730.16;6049717;28;20041;-66
2022/06/17 09:35:04;;;;;;;5.38;1.90;;;;;;;25.41;36.64;101719.25;6082937;28;20033;-66
2022/06/17 09:38:20;;;;;;;5.97;2.08;;;;;;;25.42;35.07;101712.75;6083517;28;20022;-67
2022/06/17 09:41:39;;;;;;;4.00;2.17;;;;;;;24.39;37.30;101716.50;6054014;28;20397;-66
2022/06/17 09:44:36;;;;;;;9.75;1.80;;;;;;;24.59;37.51;101730.88;6044118;28;20042;-66
2022/06/17 09:47:49;;;;;;;5.15;1.90;;;;;;;24.25;36.70;101723.84;6062068;28;20044;-66
2022/06/17 09:50:56;;;;;;;4.28;2.10;;;;;;;25.28;35.28;101724.72;6066255;28;20095;-66
2022/06/17 09:53:57;;;;;;;2.88;1.60;;;;;;;24.27;37.38;101731.75;6060335;28;20021;-66
2022/06/17 09:57:00;;;;;;;4.72;2.47;;;;;;;24.80;36.80;101736.03;6055749;28;20492;-67
2022/06/17 10:00:04;;;;;;;5.30;1.63;;;;;;;24.77;36.37;101736.44;6063267;28;20386;-67
2022/06/17 10:03:11;;;;;;;5.15;1.88;;;;;;;25.42;36.62;101731.75;6058352;28;20077;-67
2022/06/17 10:06:19;;;;;;;4.20;2.17;;;;;;;25.48;35.70;101728.19;6059560;28;20121;-66
2022/06/17 10:09:25;;;;;;;4.68;1.80;;;;;;;24.63;37.20;101736.69;6063231;28;20064;-66
2022/06/17 10:12:34;;;;;;;4.38;1.90;;;;;;;23.94;38.40;101736.34;6065035;28;20505;-66
2022/06/17 10:18:31;;;;;;;2.63;1.55;;;;;;;24.77;36.87;101733.72;6067372;28;20443;-66
2022/06/17 10:19:12;;;;;;;3.58;1.50;;;;;;;25.66;37.08;101739.16;6048944;28;20046;-66
2022/06/17 10:22:14;;;;;;;4.40;1.60;;;;;;;25.62;35.62;101743.38;6048717;28;20029;-66
2022/06/17 10:25:32;;;;;;;3.70;2.00;;;;;;;25.89;34.86;101730.41;6064619;28;20034;-66
2022/06/17 10:28:50;;;;;;;6.65;2.10;;;;;;;26.22;34.86;101743.75;6047009;28;20049;-66
2022/06/17 10:31:47;;;;;;;3.33;1.60;;;;;;;25.94;34.05;101742.28;6062929;28;20477;-66
2022/06/17 10:34:46;;;;;;;7.22;1.83;;;;;;;25.85;35.10;101732.72;6049231;28;20037;-66
2022/06/17 10:37:41;;;;;;;3.78;1.60;;;;;;;25.35;34.99;101730.97;6048150;28;20042;-66
2022/06/17 10:40:38;;;;;;;4.03;1.47;;;;;;;25.89;34.68;101724.97;6064449;28;20042;-67
2022/06/17 10:43:40;;;;;;;3.72;1.70;;;;;;;25.96;34.17;101731.16;6064746;28;20036;-67
2022/06/17 10:46:39;;;;;;;4.45;1.65;;;;;;;26.52;35.70;101728.38;6048390;28;20042;-67
2022/06/17 10:49:41;;;;;;;4.88;1.88;;;;;;;26.49;34.38;101731.53;6048922;28;20370;-67
2022/06/17 10:52:40;;;;;;;4.22;2.13;;;;;;;25.49;35.63;101732.59;6048211;28;20547;-66
2022/06/17 10:55:42;;;;;;;4.20;1.98;;;;;;;26.09;36.50;101727.53;6075836;28;20068;-67
2022/06/17 10:58:39;;;;;;;4.85;1.70;;;;;;;26.41;35.17;101726.41;6046166;28;20520;-67
2022/06/17 11:01:54;;;;;;;3.17;1.30;;;;;;;26.49;35.30;101726.09;6049527;28;20365;-67
2022/06/17 11:04:52;;;;;;;4.72;2.03;;;;;;;27.38;32.48;101722.66;6053231;28;20506;-67
2022/06/17 11:07:47;;;;;;;4.50;1.58;;;;;;;27.18;32.40;101726.50;6060115;28;20413;-67
2022/06/17 11:10:50;;;;;;;6.87;2.03;;;;;;;27.13;33.00;101717.34;6063869;28;20033;-66
2022/06/17 11:13:46;;;;;;;4.50;1.70;;;;;;;26.89;32.24;101715.59;6049482;28;20031;-67
2022/06/17 11:16:43;;;;;;;4.25;1.50;;;;;;;26.94;31.81;101716.56;6060427;28;20116;-67
2022/06/17 11:19:39;;;;;;;3.83;1.58;;;;;;;26.29;33.02;101709.97;6048611;28;20092;-67
2022/06/17 11:22:37;;;;;;;7.13;1.90;;;;;;;26.33;34.67;101703.03;6061796;28;20048;-67
2022/06/17 11:25:32;;;;;;;4.10;1.90;;;;;;;25.79;33.87;101706.41;6079222;28;20036;-66
2022/06/17 11:28:37;;;;;;;3.67;1.70;;;;;;;26.25;32.62;101699.78;6049906;28;20034;-67
2022/06/17 11:31:38;;;;;;;4.07;2.08;;;;;;;26.27;32.98;101689.50;6046825;28;20112;-67
2022/06/17 11:34:47;;;;;;;4.18;1.90;;;;;;;26.72;32.80;101707.19;6047215;28;20037;-67
2022/06/17 11:37:45;;;;;;;3.53;1.55;;;;;;;26.74;31.83;101683.31;6044894;28;20037;-67
2022/06/17 11:40:52;;;;;;;3.20;1.88;;;;;;;25.77;33.23;101686.78;6046657;28;20041;-67
2022/06/17 11:43:47;;;;;;;3.08;1.45;;;;;;;25.70;34.44;101674.31;6079870;28;20034;-66
2022/06/17 11:47:02;;;;;;;5.30;1.70;;;;;;;26.01;34.11;101666.91;6046995;28;20040;-67
2022/06/17 11:50:00;;;;;;;2.55;1.58;;;;;;;26.93;34.05;101663.16;6046853;28;20461;-67
2022/06/17 11:53:01;;;;;;;3.25;1.60;;;;;;;26.69;32.37;101669.53;6049607;28;20092;-67
2022/06/17 11:55:57;;;;;;;2.60;1.58;;;;;;;26.40;33.32;101653.97;6047214;28;20139;-66
2022/06/17 11:58:55;;;;;;;6.75;1.70;;;;;;;26.59;33.64;101653.75;6079293;28;20152;-67
2022/06/17 12:01:53;;;;;;;2.60;1.50;;;;;;;26.04;33.64;101652.88;6061248;28;20442;-67
2022/06/17 12:05:04;;;;;;;2.92;1.83;;;;;;;26.20;33.91;101656.91;6046758;28;20108;-67
2022/06/17 12:08:02;;;;;;;3.63;1.60;;;;;;;26.79;32.76;101642.63;6048402;28;20034;-67
2022/06/17 12:11:04;;;;;;;2.10;1.20;;;;;;;26.59;31.08;101642.03;6047909;28;20241;-67
2022/06/17 12:14:02;;;;;;;2.20;1.55;;;;;;;27.15;30.82;101647.16;6045369;28;20037;-67
2022/06/17 12:16:59;;;;;;;3.60;1.40;;;;;;;26.97;31.88;101644.47;6045738;28;20045;-66
2022/06/17 12:19:55;;;;;;;2.70;1.60;;;;;;;26.87;31.82;101645.03;6046897;28;20641;-66
2022/06/17 12:22:58;;;;;;;2.85;1.75;;;;;;;27.09;31.72;101643.47;6049019;28;20041;-67
2022/06/17 12:25:59;;;;;;;2.83;1.73;;;;;;;27.47;32.09;101634.09;6079406;28;20058;-67
2022/06/17 12:29:04;;;;;;;3.22;1.52;;;;;;;28.11;31.68;101635.91;6046193;28;20045;-67
2022/06/17 12:32:08;;;;;;;2.83;1.85;;;;;;;28.22;30.31;101626.88;6076128;28;20030;-67
2022/06/17 12:35:10;;;;;;;2.10;1.50;;;;;;;28.95;29.40;101621.56;6052707;28;20096;-67
2022/06/17 12:38:39;;;;;;;2.53;1.48;;;;;;;28.49;30.11;101622.53;6064130;28;20116;-67
2022/06/17 12:41:41;;;;;;;5.13;1.75;;;;;;;27.57;30.51;101618.00;6046425;28;20038;-67
2022/06/17 12:44:55;;;;;;;1.63;1.25;;;;;;;27.55;30.23;101626.41;6062934;28;20030;-66
2022/06/17 12:48:08;;;;;;;2.03;1.20;;;;;;;27.88;30.09;101630.47;6050782;28;20033;-67
2022/06/17 12:54:38;;;;;;;3.90;1.52;;;;;;;27.96;30.02;101622.75;6051723;28;20085;-66
2022/06/17 12:58:00;;;;;;;2.70;1.38;;;;;;;28.08;29.37;101620.84;6070012;28;20037;-66
2022/06/17 13:01:33;;;;;;;1.83;1.30;;;;;;;27.41;31.05;101619.53;6079714;28;20496;-67
2022/06/17 13:04:45;;;;;;;3.75;1.85;;;;;;;27.23;31.25;101611.41;6050354;28;20038;-67
2022/06/17 13:07:58;;;;;;;1.98;1.40;;;;;;;26.90;31.88;101617.34;6046653;28;20045;-67
2022/06/17 13:11:05;;;;;;;6.35;1.55;;;;;;;27.24;32.01;101612.22;6063518;28;20562;-67
2022/06/17 13:14:18;;;;;;;3.45;1.60;;;;;;;27.42;31.13;101604.00;6062660;28;20061;-67
2022/06/17 13:17:22;;;;;;;2.05;1.50;;;;;;;26.71;32.73;101618.44;6052030;28;20038;-68
2022/06/17 13:20:35;;;;;;;3.75;1.48;;;;;;;27.27;32.49;101619.94;6061093;28;20037;-67
2022/06/17 13:23:57;;;;;;;1.92;1.35;;;;;;;28.23;31.44;101612.19;6068028;28;20042;-67
2022/06/17 13:27:30;;;;;;;3.13;1.60;;;;;;;27.41;32.16;101607.78;6090366;28;20030;-67
2022/06/17 13:30:55;;;;;;;3.42;1.40;;;;;;;28.27;30.71;101600.53;6004685;28;20401;-68
2022/06/17 13:33:57;;;;;;;2.05;1.23;;;;;;;27.30;31.67;101584.88;6076562;28;20397;-67
2022/06/17 13:37:08;;;;;;;3.38;1.50;;;;;;;28.10;29.73;101596.88;6051437;28;20103;-67
2022/06/17 13:40:06;;;;;;;;;;;;;;;28.25;30.34;101599.13;6050599;28;20044;-66
2022/06/17 13:43:12;;;;;;;2.58;1.50;;;;;;;27.22;31.82;101593.41;6066038;28;19917;-67
2022/06/17 13:46:16;;;;;;;2.63;1.90;;;;;;;27.29;31.40;101593.31;6065397;28;20029;-67
2022/06/17 13:49:39;;;;;;;2.22;1.55;;;;;;;27.42;31.93;101580.28;6064614;28;20405;-67
2022/06/17 13:53:05;;;;;;;3.05;1.70;;;;;;;27.81;32.56;101586.94;6045789;28;20025;-67
2022/06/17 13:56:10;;;;;;;3.97;1.50;;;;;;;28.26;31.63;101587.97;6064027;28;20059;-67
2022/06/17 13:59:26;;;;;;;2.47;1.58;;;;;;;28.17;30.42;101581.22;6065543;28;20045;-67
2022/06/17 14:02:27;;;;;;;4.60;1.30;;;;;;;28.05;30.42;101576.84;6048411;28;20072;-67
2022/06/17 14:05:40;;;;;;;6.13;1.80;;;;;;;28.03;30.90;101582.56;6047263;28;20037;-67
2022/06/17 14:08:53;;;;;;;3.63;1.67;;;;;;;27.86;31.96;101586.25;6051120;28;20095;-67
2022/06/17 14:11:49;;;;;;;3.78;1.40;;;;;;;27.19;33.91;101591.13;6053006;28;20030;-67
2022/06/17 14:14:46;;;;;;;3.63;1.42;;;;;;;26.84;32.51;101580.16;6054043;28;20042;-67
2022/06/17 14:17:50;;;;;;;4.50;1.50;;;;;;;26.64;33.96;101585.00;6051527;28;20026;-67
2022/06/17 14:20:46;;;;;;;2.88;1.60;;;;;;;26.39;34.05;101573.44;6060895;28;20083;-67